createdAt,value
2018-04-12T00:00:56.269Z,68.50
2018-04-12T00:02:01.784Z,67.90
2018-04-12T00:03:07.297Z,65.70
2018-04-12T00:04:12.815Z,67.50
2018-04-12T00:05:18.329Z,66.80
2018-04-12T00:06:23.855Z,67.00
2018-04-12T00:07:29.349Z,67.30
2018-04-12T00:08:35.088Z,67.00
2018-04-12T00:09:40.379Z,66.60
2018-04-12T00:10:45.888Z,66.90
2018-04-12T00:11:51.410Z,68.40
2018-04-12T00:12:56.918Z,66.80
2018-04-12T00:14:02.440Z,65.60
2018-04-12T00:15:07.955Z,66.80
2018-04-12T00:16:13.468Z,67.30
2018-04-12T00:17:18.977Z,65.60
2018-04-12T00:18:24.488Z,66.10
2018-04-12T00:19:30.000Z,67.00
2018-04-12T00:20:35.514Z,67.10
2018-04-12T00:21:41.024Z,65.70
2018-04-12T00:22:46.537Z,65.60
2018-04-12T00:23:52.061Z,66.40
2018-04-12T00:24:57.578Z,65.90
2018-04-12T00:26:03.080Z,65.90
2018-04-12T00:27:08.596Z,65.30
2018-04-12T00:28:14.113Z,65.30
2018-04-12T00:29:19.623Z,65.10
2018-04-12T00:30:25.152Z,66.70
2018-04-12T00:31:30.662Z,64.80
2018-04-12T00:32:36.169Z,66.40
2018-04-12T00:33:41.678Z,64.90
2018-04-12T00:34:47.199Z,63.80
2018-04-12T00:35:52.704Z,63.90
2018-04-12T00:36:58.217Z,63.60
2018-04-12T00:38:03.733Z,63.70
2018-04-12T00:39:09.249Z,62.40
2018-04-12T00:40:14.760Z,65.00
2018-04-12T00:41:20.275Z,63.90
2018-04-12T00:42:25.792Z,64.10
2018-04-12T00:43:31.301Z,65.30
2018-04-12T00:44:36.816Z,63.80
2018-04-12T00:45:42.337Z,64.20
2018-04-12T00:46:47.916Z,64.60
2018-04-12T00:47:53.356Z,64.00
2018-04-12T00:48:58.869Z,63.30
2018-04-12T00:50:04.391Z,63.80
2018-04-12T00:51:09.896Z,63.60
2018-04-12T00:52:15.408Z,62.70
2018-04-12T00:53:20.922Z,62.20
2018-04-12T00:54:26.436Z,62.10
2018-04-12T00:55:31.957Z,62.90
2018-04-12T00:56:37.462Z,63.60
2018-04-12T00:57:42.980Z,62.10
2018-04-12T00:58:48.496Z,62.90
2018-04-12T00:59:54.009Z,61.50
2018-04-12T01:00:59.520Z,62.60
2018-04-12T01:02:05.031Z,61.60
2018-04-12T01:03:10.542Z,61.50
2018-04-12T01:04:16.059Z,61.50
2018-04-12T01:05:21.575Z,61.90
2018-04-12T01:06:27.097Z,61.30
2018-04-12T01:07:32.599Z,60.80
2018-04-12T01:08:38.112Z,59.90
2018-04-12T01:09:43.625Z,61.90
2018-04-12T01:10:49.138Z,60.90
2018-04-12T01:11:54.658Z,60.60
2018-04-12T01:13:00.167Z,60.70
2018-04-12T01:14:05.683Z,60.40
2018-04-12T01:15:11.201Z,60.00
2018-04-12T01:16:16.718Z,61.00
2018-04-12T01:17:22.219Z,61.00
2018-04-12T01:18:27.738Z,61.30
2018-04-12T01:19:33.251Z,60.50
2018-04-12T01:20:38.762Z,61.50
2018-04-12T01:21:44.275Z,60.30
2018-04-12T01:22:49.812Z,60.50
2018-04-12T01:23:55.302Z,60.40
2018-04-12T01:25:00.827Z,60.80
2018-04-12T01:26:06.330Z,60.80
2018-04-12T01:27:11.859Z,61.00
2018-04-12T01:28:17.358Z,59.60
2018-04-12T01:29:22.877Z,61.00
2018-04-12T01:30:28.379Z,60.70
2018-04-12T01:31:33.895Z,61.40
2018-04-12T01:32:39.408Z,61.40
2018-04-12T01:33:44.932Z,61.10
2018-04-12T01:34:50.432Z,60.30
2018-04-12T01:35:55.948Z,61.70
2018-04-12T01:37:01.460Z,60.40
2018-04-12T01:38:06.975Z,60.60
2018-04-12T01:39:12.501Z,59.50
2018-04-12T01:40:18.007Z,59.80
2018-04-12T01:41:23.517Z,58.70
2018-04-12T01:42:29.026Z,58.80
2018-04-12T01:43:34.546Z,59.30
2018-04-12T01:44:40.062Z,57.60
2018-04-12T01:45:45.570Z,55.30
2018-04-12T01:46:51.078Z,57.80
2018-04-12T01:47:56.603Z,56.30
2018-04-12T01:49:02.107Z,56.10
2018-04-12T01:50:07.620Z,55.90
2018-04-12T01:51:13.141Z,56.10
2018-04-12T01:52:18.652Z,54.90
2018-04-12T01:53:24.159Z,56.00
2018-04-12T01:54:29.682Z,56.60
2018-04-12T01:55:35.189Z,56.20
2018-04-12T01:56:40.702Z,55.50
2018-04-12T01:57:46.215Z,57.40
2018-04-12T01:58:51.728Z,59.00
2018-04-12T01:59:57.239Z,56.40
2018-04-12T02:01:02.750Z,58.30
2018-04-12T02:02:08.273Z,57.20
2018-04-12T02:03:13.779Z,54.50
2018-04-12T02:04:19.288Z,54.90
2018-04-12T02:05:24.811Z,55.00
2018-04-12T02:06:30.318Z,53.50
2018-04-12T02:07:35.829Z,53.40
2018-04-12T02:08:41.344Z,54.00
2018-04-12T02:09:46.859Z,55.00
2018-04-12T02:10:52.369Z,54.70
2018-04-12T02:11:57.880Z,56.00
2018-04-12T02:13:03.398Z,56.70
2018-04-12T02:14:08.915Z,56.40
2018-04-12T02:15:14.423Z,56.90
2018-04-12T02:16:19.939Z,53.90
2018-04-12T02:17:25.449Z,53.20
2018-04-12T02:18:30.963Z,53.60
2018-04-12T02:19:36.477Z,52.50
2018-04-12T02:20:41.988Z,54.40
2018-04-12T02:21:47.500Z,54.00
2018-04-12T02:22:53.021Z,54.40
2018-04-12T02:23:58.526Z,53.90
2018-04-12T02:25:04.044Z,53.10
2018-04-12T02:26:09.561Z,52.90
2018-04-12T02:27:15.070Z,52.30
2018-04-12T02:28:20.583Z,51.50
2018-04-12T02:29:26.096Z,53.80
2018-04-12T02:30:31.605Z,51.30
2018-04-12T02:31:37.120Z,51.60
2018-04-12T02:32:42.643Z,50.80
2018-04-12T02:33:48.153Z,51.20
2018-04-12T02:34:53.669Z,51.40
2018-04-12T02:35:59.171Z,51.30
2018-04-12T02:37:04.680Z,51.30
2018-04-12T02:38:10.201Z,50.70
2018-04-12T02:39:15.714Z,49.00
2018-04-12T02:40:21.235Z,48.70
2018-04-12T02:41:26.749Z,48.90
2018-04-12T02:42:32.250Z,48.20
2018-04-12T02:43:37.763Z,47.70
2018-04-12T02:44:43.279Z,47.80
2018-04-12T02:45:48.805Z,47.40
2018-04-12T02:46:54.311Z,47.70
2018-04-12T02:47:59.814Z,48.50
2018-04-12T02:49:05.323Z,47.00
2018-04-12T02:50:10.848Z,46.90
2018-04-12T02:51:16.358Z,47.20
2018-04-12T02:52:21.886Z,47.30
2018-04-12T02:53:27.381Z,46.00
2018-04-12T02:54:32.890Z,47.70
2018-04-12T02:55:38.406Z,47.40
2018-04-12T02:56:43.919Z,46.10
2018-04-12T02:57:49.456Z,45.70
2018-04-12T02:58:54.940Z,46.40
2018-04-12T03:00:00.456Z,45.60
2018-04-12T03:01:05.993Z,45.00
2018-04-12T03:02:11.482Z,45.70
2018-04-12T03:03:16.993Z,46.20
2018-04-12T03:04:22.506Z,45.30
2018-04-12T03:05:28.019Z,46.00
2018-04-12T03:06:33.529Z,44.70
2018-04-12T03:07:39.051Z,45.40
2018-04-12T03:08:44.561Z,44.70
2018-04-12T03:09:50.074Z,45.00
2018-04-12T03:10:55.588Z,45.50
2018-04-12T03:12:01.097Z,45.30
2018-04-12T03:13:06.607Z,44.70
2018-04-12T03:14:12.126Z,44.50
2018-04-12T03:15:17.637Z,44.00
2018-04-12T03:16:23.251Z,44.60
2018-04-12T03:17:28.665Z,43.80
2018-04-12T03:18:34.189Z,43.20
2018-04-12T03:19:39.693Z,43.60
2018-04-12T03:20:45.208Z,43.50
2018-04-12T03:21:50.708Z,44.70
2018-04-12T03:22:56.221Z,44.80
2018-04-12T03:24:01.738Z,43.70
2018-04-12T03:25:07.247Z,45.00
2018-04-12T03:26:12.761Z,43.10
2018-04-12T03:27:18.280Z,43.80
2018-04-12T03:28:23.792Z,45.10
2018-04-12T03:29:29.304Z,44.80
2018-04-12T03:30:34.813Z,44.90
2018-04-12T03:31:40.331Z,44.00
2018-04-12T03:32:45.840Z,44.40
2018-04-12T03:33:51.350Z,43.80
2018-04-12T03:34:56.866Z,45.00
2018-04-12T03:36:02.378Z,44.50
2018-04-12T03:37:07.891Z,45.50
2018-04-12T03:38:13.403Z,43.70
2018-04-12T03:39:18.917Z,44.70
2018-04-12T03:40:24.428Z,44.80
2018-04-12T03:41:29.939Z,44.70
2018-04-12T03:42:35.455Z,44.20
2018-04-12T03:43:40.968Z,44.80
2018-04-12T03:44:46.480Z,45.30
2018-04-12T03:45:51.995Z,44.20
2018-04-12T03:46:57.519Z,45.70
2018-04-12T03:48:03.023Z,44.70
2018-04-12T03:49:08.615Z,45.10
2018-04-12T03:50:14.043Z,45.70
2018-04-12T03:51:19.569Z,45.40
2018-04-12T03:52:25.067Z,46.50
2018-04-12T03:53:30.589Z,46.10
2018-04-12T03:54:36.095Z,46.60
2018-04-12T03:55:41.605Z,46.10
2018-04-12T03:56:47.124Z,46.40
2018-04-12T03:57:52.634Z,47.30
2018-04-12T03:58:58.148Z,46.70
2018-04-12T04:00:03.656Z,46.60
2018-04-12T04:01:09.180Z,47.40
2018-04-12T04:02:14.683Z,46.50
2018-04-12T04:03:20.196Z,47.30
2018-04-12T04:04:25.749Z,47.50
2018-04-12T04:05:31.217Z,47.20
2018-04-12T04:06:36.735Z,46.60
2018-04-12T04:07:42.277Z,46.10
2018-04-12T04:08:47.760Z,47.80
2018-04-12T04:09:53.270Z,48.00
2018-04-12T04:10:58.786Z,47.10
2018-04-12T04:12:04.298Z,47.20
2018-04-12T04:13:09.805Z,48.30
2018-04-12T04:14:15.323Z,47.30
2018-04-12T04:15:20.834Z,48.00
2018-04-12T04:16:26.410Z,47.40
2018-04-12T04:17:31.866Z,47.50
2018-04-12T04:18:37.373Z,47.90
2018-04-12T04:19:42.987Z,48.60
2018-04-12T04:20:48.409Z,48.50
2018-04-12T04:21:53.908Z,48.20
2018-04-12T04:22:59.423Z,48.50
2018-04-12T04:24:04.930Z,47.60
2018-04-12T04:25:10.447Z,49.20
2018-04-12T04:26:15.964Z,50.00
2018-04-12T04:27:21.473Z,48.40
2018-04-12T04:28:26.985Z,48.90
2018-04-12T04:29:32.494Z,48.80
2018-04-12T04:30:38.008Z,49.50
2018-04-12T04:31:43.521Z,48.80
2018-04-12T04:32:49.032Z,49.20
2018-04-12T04:33:54.558Z,48.40
2018-04-12T04:35:00.058Z,48.40
2018-04-12T04:36:05.574Z,49.20
2018-04-12T04:37:11.091Z,49.50
2018-04-12T04:38:16.602Z,49.50
2018-04-12T04:39:22.110Z,50.00
2018-04-12T04:40:27.621Z,49.90
2018-04-12T04:41:33.136Z,49.50
2018-04-12T04:42:38.650Z,49.10
2018-04-12T04:43:44.168Z,49.10
2018-04-12T04:44:49.679Z,49.50
2018-04-12T04:45:55.188Z,50.10
2018-04-12T04:47:00.704Z,49.50
2018-04-12T04:48:06.209Z,50.20
2018-04-12T04:49:11.720Z,48.90
2018-04-12T04:50:17.239Z,50.00
2018-04-12T04:51:22.758Z,49.50
2018-04-12T04:52:28.261Z,49.90
2018-04-12T04:53:33.770Z,49.20
2018-04-12T04:54:39.280Z,48.70
2018-04-12T04:55:44.801Z,48.50
2018-04-12T04:56:50.310Z,49.90
2018-04-12T04:57:55.829Z,50.00
2018-04-12T04:59:01.345Z,50.50
2018-04-12T05:00:06.844Z,48.90
2018-04-12T05:01:12.364Z,49.20
2018-04-12T05:02:17.868Z,48.90
2018-04-12T05:03:23.387Z,49.00
2018-04-12T05:04:28.897Z,49.80
2018-04-12T05:05:34.413Z,49.00
2018-04-12T05:06:39.933Z,47.70
2018-04-12T05:07:45.431Z,49.80
2018-04-12T05:08:50.948Z,48.90
2018-04-12T05:09:56.465Z,50.40
2018-04-12T05:11:01.973Z,48.90
2018-04-12T05:12:07.482Z,48.70
2018-04-12T05:13:12.997Z,49.00
2018-04-12T05:14:18.516Z,50.60
2018-04-12T05:15:24.027Z,49.40
2018-04-12T05:16:29.535Z,49.20
2018-04-12T05:17:35.062Z,48.60
2018-04-12T05:18:40.554Z,49.20
2018-04-12T05:19:46.069Z,49.20
2018-04-12T05:20:51.580Z,48.50
2018-04-12T05:21:57.125Z,49.40
2018-04-12T05:23:02.606Z,49.90
2018-04-12T05:24:08.122Z,47.40
2018-04-12T05:25:13.647Z,48.40
2018-04-12T05:26:19.147Z,48.20
2018-04-12T05:27:24.653Z,49.40
2018-04-12T05:28:30.169Z,49.60
2018-04-12T05:29:35.700Z,47.20
2018-04-12T05:30:41.191Z,49.00
2018-04-12T05:31:46.710Z,48.70
2018-04-12T05:32:52.218Z,48.10
2018-04-12T05:33:57.731Z,48.80
2018-04-12T05:35:03.244Z,50.50
2018-04-12T05:36:08.759Z,50.00
2018-04-12T05:37:14.266Z,50.10
2018-04-12T05:38:19.779Z,49.20
2018-04-12T05:39:25.305Z,50.60
2018-04-12T05:40:30.806Z,50.60
2018-04-12T05:41:36.318Z,49.50
2018-04-12T05:42:41.829Z,49.40
2018-04-12T05:43:47.350Z,50.20
2018-04-12T05:44:52.858Z,50.80
2018-04-12T05:45:58.370Z,51.20
2018-04-12T05:47:03.878Z,51.00
2018-04-12T05:48:09.399Z,49.90
2018-04-12T05:49:14.909Z,51.10
2018-04-12T05:50:20.419Z,51.90
2018-04-12T05:51:25.935Z,49.50
2018-04-12T05:52:31.439Z,50.80
2018-04-12T05:53:36.958Z,51.00
2018-04-12T05:54:42.464Z,50.60
2018-04-12T05:55:47.973Z,51.00
2018-04-12T05:56:53.489Z,50.40
2018-04-12T05:57:59.000Z,50.80
2018-04-12T05:59:04.511Z,51.80
2018-04-12T06:00:10.159Z,50.30
2018-04-12T06:01:15.537Z,51.00
2018-04-12T06:02:21.058Z,51.20
2018-04-12T06:03:26.596Z,51.10
2018-04-12T06:04:32.073Z,52.10
2018-04-12T06:05:37.585Z,52.10
2018-04-12T06:06:43.100Z,52.10
2018-04-12T06:07:48.610Z,51.30
2018-04-12T06:08:54.123Z,51.90
2018-04-12T06:09:59.637Z,51.50
2018-04-12T06:11:05.152Z,51.80
2018-04-12T06:12:10.661Z,51.20
2018-04-12T06:13:16.178Z,52.60
2018-04-12T06:14:21.694Z,52.50
2018-04-12T06:15:27.200Z,51.70
2018-04-12T06:16:32.717Z,53.00
2018-04-12T06:17:38.234Z,52.80
2018-04-12T06:18:43.738Z,54.30
2018-04-12T06:19:49.249Z,52.90
2018-04-12T06:20:54.761Z,52.60
2018-04-12T06:22:00.279Z,53.80
2018-04-12T06:23:05.784Z,53.30
2018-04-12T06:24:11.297Z,53.60
2018-04-12T06:25:16.815Z,53.60
2018-04-12T06:26:22.326Z,53.40
2018-04-12T06:27:27.858Z,53.90
2018-04-12T06:28:33.377Z,52.60
2018-04-12T06:29:38.872Z,52.80
2018-04-12T06:30:44.383Z,53.60
2018-04-12T06:31:49.890Z,53.80
2018-04-12T06:32:55.409Z,53.90
2018-04-12T06:34:00.948Z,52.90
2018-04-12T06:35:06.494Z,52.70
2018-04-12T06:36:12.058Z,54.50
2018-04-12T06:37:17.455Z,54.00
2018-04-12T06:38:22.964Z,54.40
2018-04-12T06:39:28.478Z,54.50
2018-04-12T06:40:33.991Z,54.30
2018-04-12T06:41:39.564Z,53.70
2018-04-12T06:42:45.031Z,54.20
2018-04-12T06:43:50.535Z,54.80
2018-04-12T06:44:56.044Z,55.50
2018-04-12T06:46:01.560Z,54.60
2018-04-12T06:47:07.083Z,56.30
2018-04-12T06:48:12.580Z,56.20
2018-04-12T06:49:18.096Z,56.10
2018-04-12T06:50:23.609Z,55.80
2018-04-12T06:51:29.117Z,55.90
2018-04-12T06:52:34.649Z,55.70
2018-04-12T06:53:40.144Z,56.10
2018-04-12T06:54:45.658Z,55.80
2018-04-12T06:55:51.171Z,56.60
2018-04-12T06:56:56.687Z,56.00
2018-04-12T06:58:02.199Z,55.70
2018-04-12T06:59:07.709Z,55.80
2018-04-12T07:00:13.228Z,56.50
2018-04-12T07:01:18.739Z,55.50
2018-04-12T07:02:24.248Z,55.10
2018-04-12T07:03:29.768Z,55.70
2018-04-12T07:04:35.279Z,56.70
2018-04-12T07:05:40.793Z,55.30
2018-04-12T07:06:46.308Z,55.00
2018-04-12T07:07:51.831Z,54.30
2018-04-12T07:08:57.339Z,55.00
2018-04-12T07:10:02.841Z,55.00
2018-04-12T07:11:08.356Z,55.10
2018-04-12T07:12:13.868Z,56.80
2018-04-12T07:13:19.377Z,55.60
2018-04-12T07:14:24.892Z,56.90
2018-04-12T07:15:30.406Z,56.60
2018-04-12T07:16:35.924Z,56.30
2018-04-12T07:17:41.434Z,56.50
2018-04-12T07:18:46.945Z,54.70
2018-04-12T07:19:52.454Z,56.30
2018-04-12T07:20:57.972Z,56.20
2018-04-12T07:22:03.496Z,55.50
2018-04-12T07:23:08.998Z,55.40
2018-04-12T07:24:14.513Z,55.80
2018-04-12T07:25:20.023Z,56.00
2018-04-12T07:26:25.546Z,56.50
2018-04-12T07:27:31.056Z,55.50
2018-04-12T07:28:36.566Z,56.40
2018-04-12T07:29:42.088Z,55.90
2018-04-12T07:30:47.610Z,55.90
2018-04-12T07:31:53.108Z,56.70
2018-04-12T07:32:58.617Z,57.50
2018-04-12T07:34:04.139Z,56.90
2018-04-12T07:35:09.652Z,57.00
2018-04-12T07:36:15.162Z,56.80
2018-04-12T07:37:20.673Z,55.70
2018-04-12T07:38:26.186Z,56.60
2018-04-12T07:39:31.697Z,57.10
2018-04-12T07:40:37.211Z,56.90
2018-04-12T07:41:42.726Z,57.60
2018-04-12T07:42:48.239Z,57.60
2018-04-12T07:43:53.757Z,57.70
2018-04-12T07:44:59.278Z,57.90
2018-04-12T07:46:04.776Z,58.20
2018-04-12T07:47:10.296Z,58.10
2018-04-12T07:48:15.818Z,57.60
2018-04-12T07:49:21.322Z,57.10
2018-04-12T07:50:26.834Z,58.10
2018-04-12T07:51:32.348Z,56.40
2018-04-12T07:52:37.865Z,56.20
2018-04-12T07:53:43.377Z,55.00
2018-04-12T07:54:48.888Z,57.10
2018-04-12T07:55:54.400Z,55.50
2018-04-12T07:56:59.917Z,57.40
2018-04-12T07:58:05.440Z,56.20
2018-04-12T07:59:10.950Z,57.30
2018-04-12T08:00:16.455Z,56.40
2018-04-12T08:01:21.977Z,56.10
2018-04-12T08:02:27.482Z,55.30
2018-04-12T08:03:33.006Z,54.90
2018-04-12T08:04:38.511Z,56.80
2018-04-12T08:05:44.035Z,54.40
2018-04-12T08:06:49.549Z,56.90
2018-04-12T08:07:55.059Z,54.30
2018-04-12T08:09:00.578Z,56.20
2018-04-12T08:10:06.083Z,56.00
2018-04-12T08:11:11.603Z,55.20
2018-04-12T08:12:17.123Z,56.20
2018-04-12T08:13:22.628Z,55.60
2018-04-12T08:14:28.141Z,55.20
2018-04-12T08:15:33.657Z,54.40
2018-04-12T08:16:39.222Z,55.50
2018-04-12T08:17:44.679Z,54.10
2018-04-12T08:18:50.193Z,55.30
2018-04-12T08:19:55.707Z,55.60
2018-04-12T08:21:01.232Z,54.80
2018-04-12T08:22:06.740Z,54.30
2018-04-12T08:23:12.264Z,55.40
2018-04-12T08:24:17.760Z,55.00
2018-04-12T08:28:37.916Z,54.40
2018-04-12T08:29:41.590Z,53.70
2018-04-12T08:30:47.116Z,53.20
2018-04-12T08:31:52.619Z,53.50
2018-04-12T08:32:58.142Z,53.90
2018-04-12T08:34:03.643Z,54.00
2018-04-12T08:35:09.162Z,53.60
2018-04-12T08:36:14.666Z,53.40
2018-04-12T08:37:20.180Z,53.70
2018-04-12T08:38:25.695Z,53.80
2018-04-12T08:39:31.211Z,53.00
2018-04-12T08:40:36.720Z,52.60
2018-04-12T08:41:42.231Z,53.30
2018-04-12T08:42:47.742Z,52.30
2018-04-12T08:43:53.252Z,52.50
2018-04-12T08:44:58.783Z,52.70
2018-04-12T08:46:04.283Z,51.50
2018-04-12T08:47:09.795Z,54.30
2018-04-12T08:48:15.318Z,50.60
2018-04-12T08:49:20.819Z,51.80
2018-04-12T08:50:26.333Z,51.60
2018-04-12T08:51:31.843Z,51.20
2018-04-12T08:52:37.363Z,51.50
2018-04-12T08:53:42.989Z,50.70
2018-04-12T08:54:48.383Z,51.00
2018-04-12T08:55:53.915Z,52.10
2018-04-12T08:56:59.414Z,51.20
2018-04-12T08:58:04.926Z,50.70
2018-04-12T08:59:10.442Z,50.50
2018-04-12T09:00:15.958Z,49.50
2018-04-12T09:01:21.478Z,50.90
2018-04-12T09:02:26.983Z,50.30
2018-04-12T09:03:32.495Z,50.40
2018-04-12T09:04:38.017Z,50.90
2018-04-12T09:05:43.527Z,48.60
2018-04-12T09:06:49.042Z,49.70
2018-04-12T09:07:54.546Z,48.90
2018-04-12T09:09:00.064Z,48.80
2018-04-12T09:10:05.579Z,49.30
2018-04-12T09:11:11.100Z,48.70
2018-04-12T09:12:16.616Z,48.00
2018-04-12T09:13:22.120Z,47.70
2018-04-12T09:14:27.634Z,48.50
2018-04-12T09:15:33.149Z,47.70
2018-04-12T09:16:38.664Z,47.20
2018-04-12T09:17:44.184Z,48.70
2018-04-12T09:18:49.688Z,49.30
2018-04-12T09:19:55.208Z,48.40
2018-04-12T09:21:00.715Z,49.80
2018-04-12T09:22:06.238Z,48.80
2018-04-12T09:23:11.745Z,46.70
2018-04-12T09:24:17.261Z,46.10
2018-04-12T09:25:22.775Z,46.60
2018-04-12T09:26:28.379Z,46.80
2018-04-12T09:27:33.805Z,46.90
2018-04-12T09:28:39.314Z,46.30
2018-04-12T09:29:44.849Z,47.40
2018-04-12T09:30:50.347Z,48.10
2018-04-12T09:31:55.868Z,47.10
2018-04-12T09:33:01.389Z,47.20
2018-04-12T09:34:06.888Z,45.90
2018-04-12T09:35:12.408Z,45.80
2018-04-12T09:36:17.921Z,46.40
2018-04-12T09:37:23.433Z,47.70
2018-04-12T09:38:28.960Z,44.50
2018-04-12T09:39:34.471Z,45.20
2018-04-12T09:40:39.985Z,44.90
2018-04-12T09:41:45.492Z,43.60
2018-04-12T09:42:51.009Z,43.10
2018-04-12T09:43:56.517Z,43.60
2018-04-12T09:45:02.035Z,44.80
2018-04-12T09:46:07.549Z,44.90
2018-04-12T09:47:13.058Z,43.90
2018-04-12T09:48:18.579Z,42.80
2018-04-12T09:49:24.173Z,42.60
2018-04-12T09:50:29.605Z,43.20
2018-04-12T09:51:35.125Z,43.50
2018-04-12T09:52:40.635Z,42.50
2018-04-12T09:53:46.163Z,43.30
2018-04-12T09:54:51.674Z,42.20
2018-04-12T09:55:57.179Z,42.50
2018-04-12T09:57:02.702Z,41.70
2018-04-12T09:58:08.208Z,41.30
2018-04-12T09:59:13.776Z,40.20
2018-04-12T10:00:19.239Z,41.80
2018-04-12T10:01:24.751Z,42.50
2018-04-12T10:02:30.270Z,41.30
2018-04-12T10:03:35.789Z,41.30
2018-04-12T10:04:41.298Z,41.00
2018-04-12T10:05:46.816Z,40.40
2018-04-12T10:06:52.323Z,40.10
2018-04-12T10:07:57.839Z,40.30
2018-04-12T10:09:03.365Z,40.30
2018-04-12T10:10:08.869Z,40.10
2018-04-12T10:11:14.386Z,39.90
2018-04-12T10:12:19.905Z,40.60
2018-04-12T10:13:25.411Z,39.70
2018-04-12T10:14:30.931Z,39.70
2018-04-12T10:15:36.446Z,39.40
2018-04-12T10:16:41.996Z,39.40
2018-04-12T10:17:47.476Z,39.80
2018-04-12T10:18:52.997Z,38.80
2018-04-12T10:19:58.506Z,40.60
2018-04-12T10:21:04.029Z,39.60
2018-04-12T10:22:09.536Z,39.90
2018-04-12T10:23:15.047Z,40.60
2018-04-12T10:24:20.568Z,40.50
2018-04-12T10:25:26.084Z,40.90
2018-04-12T10:26:31.599Z,40.50
2018-04-12T10:27:37.111Z,40.40
2018-04-12T10:28:42.631Z,39.50
2018-04-12T10:29:48.137Z,39.30
2018-04-12T10:30:53.657Z,39.80
2018-04-12T10:31:59.171Z,39.40
2018-04-12T10:33:04.698Z,39.30
2018-04-12T10:34:10.212Z,39.60
2018-04-12T10:35:15.790Z,39.60
2018-04-12T10:36:21.235Z,38.20
2018-04-12T10:37:26.787Z,38.90
2018-04-12T10:38:32.264Z,39.90
2018-04-12T10:39:37.804Z,39.90
2018-04-12T10:40:43.298Z,39.00
2018-04-12T10:41:48.830Z,38.50
2018-04-12T10:42:54.325Z,39.80
2018-04-12T10:43:59.845Z,39.50
2018-04-12T10:45:05.379Z,39.10
2018-04-12T10:46:10.876Z,40.00
2018-04-12T10:47:16.402Z,38.30
2018-04-12T10:48:21.899Z,38.70
2018-04-12T10:49:27.417Z,38.80
2018-04-12T10:50:32.939Z,39.30
2018-04-12T10:51:38.447Z,39.80
2018-04-12T10:52:43.963Z,39.70
2018-04-12T10:53:49.476Z,39.60
2018-04-12T10:54:54.992Z,39.60
2018-04-12T10:56:00.533Z,39.50
2018-04-12T10:57:06.027Z,38.30
2018-04-12T10:58:11.540Z,39.50
2018-04-12T10:59:17.076Z,38.20
2018-04-12T11:00:22.574Z,39.20
2018-04-12T11:01:28.094Z,39.60
2018-04-12T11:02:33.604Z,39.30
2018-04-12T11:03:39.116Z,39.40
2018-04-12T11:04:44.650Z,38.50
2018-04-12T11:05:50.152Z,39.90
2018-04-12T11:06:55.670Z,39.10
2018-04-12T11:08:01.186Z,39.40
2018-04-12T11:09:06.693Z,39.40
2018-04-12T11:10:12.209Z,38.90
2018-04-12T11:11:17.726Z,38.40
2018-04-12T11:12:23.245Z,38.50
2018-04-12T11:13:28.757Z,39.90
2018-04-12T11:14:34.280Z,39.60
2018-04-12T11:15:39.798Z,38.80
2018-04-12T11:16:45.318Z,39.70
2018-04-12T11:17:50.826Z,39.90
2018-04-12T11:18:56.339Z,38.60
2018-04-12T11:20:01.855Z,38.90
2018-04-12T11:21:07.375Z,39.20
2018-04-12T11:22:12.887Z,39.00
2018-04-12T11:23:18.429Z,39.20
2018-04-12T11:24:23.918Z,39.20
2018-04-12T11:25:29.506Z,38.20
2018-04-12T11:26:34.947Z,38.10
2018-04-12T11:27:40.460Z,38.20
2018-04-12T11:28:45.979Z,38.30
2018-04-12T11:29:51.547Z,38.70
2018-04-12T11:30:57.016Z,38.80
2018-04-12T11:32:02.541Z,39.50
2018-04-12T11:33:08.070Z,37.70
2018-04-12T11:34:13.617Z,38.00
2018-04-12T11:35:19.107Z,36.90
2018-04-12T11:36:24.609Z,38.10
2018-04-12T11:37:30.107Z,37.70
2018-04-12T11:38:35.624Z,37.00
2018-04-12T11:39:41.143Z,37.70
2018-04-12T11:40:46.662Z,37.20
2018-04-12T11:41:52.178Z,36.50
2018-04-12T11:42:57.698Z,37.20
2018-04-12T11:44:03.210Z,37.30
2018-04-12T11:45:08.752Z,37.20
2018-04-12T11:46:14.246Z,37.50
2018-04-12T11:47:19.758Z,36.00
2018-04-12T11:48:25.282Z,36.40
2018-04-12T11:49:30.795Z,36.70
2018-04-12T11:50:36.307Z,35.30
2018-04-12T11:51:41.830Z,36.20
2018-04-12T11:52:47.350Z,36.20
2018-04-12T11:53:52.861Z,36.70
2018-04-12T11:54:58.415Z,36.00
2018-04-12T11:56:03.908Z,36.50
2018-04-12T11:57:09.415Z,36.70
2018-04-12T11:58:14.925Z,35.60
2018-04-12T11:59:20.450Z,34.90
2018-04-12T12:00:25.978Z,34.60
2018-04-12T12:01:31.489Z,35.20
2018-04-12T12:02:37.000Z,35.50
2018-04-12T12:03:42.514Z,35.20
2018-04-12T12:04:48.037Z,34.80
2018-04-12T12:05:53.568Z,35.10
2018-04-12T12:06:59.099Z,35.20
2018-04-12T12:08:04.586Z,34.50
2018-04-12T12:09:10.098Z,34.50
2018-04-12T12:10:15.626Z,34.80
2018-04-12T12:11:21.146Z,34.60
2018-04-12T12:12:26.720Z,34.10
2018-04-12T12:13:32.173Z,33.40
2018-04-12T12:14:37.696Z,33.90
2018-04-12T12:15:43.214Z,34.30
2018-04-12T12:16:48.729Z,35.30
2018-04-12T12:17:54.265Z,35.00
2018-04-12T12:18:59.770Z,34.40
2018-04-12T12:20:05.284Z,33.50
2018-04-12T12:21:10.801Z,34.40
2018-04-12T12:22:16.325Z,33.10
2018-04-12T12:23:21.838Z,33.20
2018-04-12T12:24:27.354Z,33.20
2018-04-12T12:25:32.876Z,32.40
2018-04-12T12:26:38.415Z,33.40
2018-04-12T12:27:43.907Z,33.00
2018-04-12T12:28:49.441Z,32.90
2018-04-12T12:29:54.942Z,33.90
2018-04-12T12:31:00.466Z,32.10
2018-04-12T12:32:05.988Z,32.00
2018-04-12T12:33:11.502Z,33.10
2018-04-12T12:34:17.019Z,32.00
2018-04-12T12:35:22.590Z,32.90
2018-04-12T12:36:28.057Z,32.50
2018-04-12T12:37:33.572Z,32.00
2018-04-12T12:38:39.100Z,31.90
2018-04-12T12:39:44.608Z,32.30
2018-04-12T12:40:50.173Z,31.40
2018-04-12T12:41:55.645Z,31.70
2018-04-12T12:43:01.167Z,32.00
2018-04-12T12:44:06.686Z,32.10
2018-04-12T12:45:12.209Z,33.20
2018-04-12T12:46:17.736Z,32.20
2018-04-12T12:47:23.247Z,32.20
2018-04-12T12:48:28.770Z,31.80
2018-04-12T12:49:34.280Z,31.30
2018-04-12T12:50:39.807Z,31.00
2018-04-12T12:51:45.320Z,31.80
2018-04-12T12:52:50.836Z,31.20
2018-04-12T12:53:56.357Z,31.20
2018-04-12T12:55:01.876Z,30.10
2018-04-12T12:56:07.417Z,31.00
2018-04-12T12:57:12.910Z,31.40
2018-04-12T12:58:18.439Z,31.30
2018-04-12T12:59:23.947Z,30.10
2018-04-12T13:00:29.633Z,30.00
2018-04-12T13:01:34.987Z,30.10
2018-04-12T13:02:40.508Z,29.80
2018-04-12T13:03:46.100Z,30.70
2018-04-12T13:04:51.550Z,30.70
2018-04-12T13:05:57.085Z,31.10
2018-04-12T13:07:02.589Z,30.20
2018-04-12T13:08:08.101Z,30.20
2018-04-12T13:09:13.620Z,29.20
2018-04-12T13:10:19.142Z,31.10
2018-04-12T13:11:24.660Z,30.20
2018-04-12T13:12:30.195Z,30.30
2018-04-12T13:13:35.722Z,31.20
2018-04-12T13:14:41.220Z,30.80
2018-04-12T13:15:46.739Z,30.30
2018-04-12T13:16:52.256Z,30.40
2018-04-12T13:17:57.778Z,30.80
2018-04-12T13:19:03.300Z,29.90
2018-04-12T13:20:08.818Z,30.20
2018-04-12T13:21:14.342Z,29.90
2018-04-12T13:22:19.865Z,31.20
2018-04-12T13:23:25.370Z,30.80
2018-04-12T13:24:30.890Z,30.10
2018-04-12T13:25:36.413Z,31.90
2018-04-12T13:26:41.935Z,29.70
2018-04-12T13:27:47.450Z,30.10
2018-04-12T13:28:52.971Z,29.90
2018-04-12T13:29:58.500Z,29.50
2018-04-12T13:31:04.099Z,29.90
2018-04-12T13:32:09.530Z,30.40
2018-04-12T13:33:15.103Z,30.10
2018-04-12T13:34:20.569Z,30.50
2018-04-12T13:35:26.094Z,30.70
2018-04-12T13:36:31.608Z,30.00
2018-04-12T13:37:37.133Z,29.80
2018-04-12T13:38:42.662Z,30.30
2018-04-12T13:39:48.172Z,30.30
2018-04-12T13:40:53.700Z,30.60
2018-04-12T13:41:59.220Z,29.60
2018-04-12T13:43:04.728Z,29.30
2018-04-12T13:44:10.253Z,29.70
2018-04-12T13:45:15.769Z,29.50
2018-04-12T13:46:21.303Z,30.10
2018-04-12T13:47:26.816Z,30.70
2018-04-12T13:48:32.332Z,30.40
2018-04-12T13:49:37.849Z,30.10
2018-04-12T13:50:43.372Z,30.20
2018-04-12T13:51:48.900Z,29.90
2018-04-12T13:52:54.423Z,30.50
2018-04-12T13:53:59.930Z,29.50
2018-04-12T13:55:05.491Z,30.10
2018-04-12T13:56:10.975Z,29.90
2018-04-12T13:57:16.492Z,30.90
2018-04-12T13:58:22.022Z,31.50
2018-04-12T13:59:27.538Z,30.90
2018-04-12T14:00:33.063Z,30.60
2018-04-12T14:01:38.574Z,29.40
2018-04-12T14:02:44.094Z,29.90
2018-04-12T14:03:49.653Z,30.80
2018-04-12T14:04:55.142Z,30.30
2018-04-12T14:06:00.667Z,30.00
2018-04-12T14:07:06.181Z,32.10